sensor_id;sensor_type;location;lat;lon;timestamp;P1;durP1;ratioP1;P2;durP2;ratioP2
50631;SDS011;49583;45.590;-122.498;2022-12-29T00:01:43;8.60;;;6.00;;
50631;SDS011;49583;45.590;-122.498;2022-12-29T00:03:57;9.10;;;6.00;;
50631;SDS011;49583;45.590;-122.498;2022-12-29T00:08:29;1.60;;;1.10;;
50631;SDS011;49583;45.590;-122.498;2022-12-29T00:10:48;5.30;;;1.10;;
50631;SDS011;49583;45.590;-122.498;2022-12-29T00:13:04;1.60;;;1.20;;
50631;SDS011;49583;45.590;-122.498;2022-12-29T00:15:30;3.90;;;1.50;;
50631;SDS011;49583;45.590;-122.498;2022-12-29T00:17:48;2.80;;;1.20;;
50631;SDS011;49583;45.590;-122.498;2022-12-29T00:20:01;2.80;;;1.00;;
50631;SDS011;49583;45.590;-122.498;2022-12-29T00:22:32;1.70;;;1.10;;
50631;SDS011;49583;45.590;-122.498;2022-12-29T00:25:02;2.00;;;1.10;;
50631;SDS011;49583;45.590;-122.498;2022-12-29T00:27:43;2.20;;;1.70;;
50631;SDS011;49583;45.590;-122.498;2022-12-29T00:30:15;1.80;;;1.50;;
50631;SDS011;49583;45.590;-122.498;2022-12-29T00:32:46;1.20;;;0.90;;
50631;SDS011;49583;45.590;-122.498;2022-12-29T00:35:19;2.40;;;1.00;;
50631;SDS011;49583;45.590;-122.498;2022-12-29T00:37:35;4.50;;;2.00;;
50631;SDS011;49583;45.590;-122.498;2022-12-29T00:40:07;3.60;;;2.80;;
50631;SDS011;49583;45.590;-122.498;2022-12-29T00:42:37;3.20;;;2.20;;
50631;SDS011;49583;45.590;-122.498;2022-12-29T00:45:08;3.70;;;2.20;;
50631;SDS011;49583;45.590;-122.498;2022-12-29T00:47:21;6.20;;;3.50;;
50631;SDS011;49583;45.590;-122.498;2022-12-29T00:49:34;2.60;;;1.90;;
50631;SDS011;49583;45.590;-122.498;2022-12-29T00:51:47;4.30;;;2.10;;
50631;SDS011;49583;45.590;-122.498;2022-12-29T00:54:00;2.80;;;1.80;;
50631;SDS011;49583;45.590;-122.498;2022-12-29T00:56:13;4.30;;;1.80;;
50631;SDS011;49583;45.590;-122.498;2022-12-29T00:58:28;5.20;;;1.90;;
50631;SDS011;49583;45.590;-122.498;2022-12-29T01:00:41;4.60;;;3.20;;
50631;SDS011;49583;45.590;-122.498;2022-12-29T01:02:55;7.00;;;3.30;;
50631;SDS011;49583;45.590;-122.498;2022-12-29T01:05:09;4.80;;;2.30;;
50631;SDS011;49583;45.590;-122.498;2022-12-29T01:07:24;5.10;;;2.70;;
50631;SDS011;49583;45.590;-122.498;2022-12-29T01:09:37;3.80;;;2.10;;
50631;SDS011;49583;45.590;-122.498;2022-12-29T01:12:07;4.40;;;1.90;;
50631;SDS011;49583;45.590;-122.498;2022-12-29T01:14:20;1.60;;;1.30;;
50631;SDS011;49583;45.590;-122.498;2022-12-29T01:16:35;5.20;;;1.40;;
50631;SDS011;49583;45.590;-122.498;2022-12-29T01:18:48;5.40;;;1.70;;
50631;SDS011;49583;45.590;-122.498;2022-12-29T01:21:02;1.30;;;1.20;;
50631;SDS011;49583;45.590;-122.498;2022-12-29T01:23:16;2.10;;;1.60;;
50631;SDS011;49583;45.590;-122.498;2022-12-29T01:25:28;4.70;;;1.60;;
50631;SDS011;49583;45.590;-122.498;2022-12-29T01:27:41;7.40;;;1.70;;
50631;SDS011;49583;45.590;-122.498;2022-12-29T01:29:55;2.20;;;1.90;;
50631;SDS011;49583;45.590;-122.498;2022-12-29T01:32:08;2.80;;;1.50;;
50631;SDS011;49583;45.590;-122.498;2022-12-29T01:34:23;4.30;;;1.70;;
50631;SDS011;49583;45.590;-122.498;2022-12-29T01:36:36;7.10;;;1.70;;
50631;SDS011;49583;45.590;-122.498;2022-12-29T01:38:50;4.40;;;1.70;;
50631;SDS011;49583;45.590;-122.498;2022-12-29T01:41:05;6.00;;;2.20;;
50631;SDS011;49583;45.590;-122.498;2022-12-29T01:43:20;5.90;;;1.70;;
50631;SDS011;49583;45.590;-122.498;2022-12-29T01:45:47;4.10;;;1.70;;
50631;SDS011;49583;45.590;-122.498;2022-12-29T01:48:03;3.80;;;1.50;;
50631;SDS011;49583;45.590;-122.498;2022-12-29T01:50:20;3.40;;;1.70;;
50631;SDS011;49583;45.590;-122.498;2022-12-29T01:52:40;5.90;;;1.70;;
50631;SDS011;49583;45.590;-122.498;2022-12-29T01:55:09;1.80;;;1.00;;
50631;SDS011;49583;45.590;-122.498;2022-12-29T01:57:25;3.50;;;2.00;;
50631;SDS011;49583;45.590;-122.498;2022-12-29T01:59:42;2.70;;;1.70;;
50631;SDS011;49583;45.590;-122.498;2022-12-29T02:02:02;4.70;;;1.70;;
50631;SDS011;49583;45.590;-122.498;2022-12-29T02:04:16;6.40;;;1.80;;
50631;SDS011;49583;45.590;-122.498;2022-12-29T02:06:31;4.70;;;1.60;;
50631;SDS011;49583;45.590;-122.498;2022-12-29T02:08:48;3.40;;;1.30;;
50631;SDS011;49583;45.590;-122.498;2022-12-29T02:11:03;2.20;;;1.30;;
50631;SDS011;49583;45.590;-122.498;2022-12-29T02:13:17;2.70;;;1.70;;
50631;SDS011;49583;45.590;-122.498;2022-12-29T02:15:34;2.00;;;1.20;;
50631;SDS011;49583;45.590;-122.498;2022-12-29T02:18:11;1.50;;;1.10;;
50631;SDS011;49583;45.590;-122.498;2022-12-29T02:20:45;2.80;;;1.30;;
50631;SDS011;49583;45.590;-122.498;2022-12-29T02:23:29;6.00;;;1.40;;
50631;SDS011;49583;45.590;-122.498;2022-12-29T02:26:11;2.10;;;1.30;;
50631;SDS011;49583;45.590;-122.498;2022-12-29T02:28:45;2.50;;;1.40;;
50631;SDS011;49583;45.590;-122.498;2022-12-29T02:31:15;5.10;;;1.30;;
50631;SDS011;49583;45.590;-122.498;2022-12-29T02:33:37;3.20;;;1.60;;
50631;SDS011;49583;45.590;-122.498;2022-12-29T02:36:00;3.30;;;1.30;;
50631;SDS011;49583;45.590;-122.498;2022-12-29T02:38:28;5.90;;;1.40;;
50631;SDS011;49583;45.590;-122.498;2022-12-29T02:40:53;2.10;;;1.50;;
50631;SDS011;49583;45.590;-122.498;2022-12-29T02:43:21;4.90;;;1.70;;
50631;SDS011;49583;45.590;-122.498;2022-12-29T02:45:42;5.50;;;2.10;;
50631;SDS011;49583;45.590;-122.498;2022-12-29T02:48:03;3.60;;;1.70;;
50631;SDS011;49583;45.590;-122.498;2022-12-29T02:50:22;3.60;;;2.10;;
50631;SDS011;49583;45.590;-122.498;2022-12-29T02:52:40;2.90;;;1.80;;
50631;SDS011;49583;45.590;-122.498;2022-12-29T02:54:58;4.80;;;1.50;;
50631;SDS011;49583;45.590;-122.498;2022-12-29T02:57:13;4.00;;;1.60;;
50631;SDS011;49583;45.590;-122.498;2022-12-29T02:59:39;5.80;;;1.70;;
50631;SDS011;49583;45.590;-122.498;2022-12-29T03:01:59;3.20;;;1.90;;
50631;SDS011;49583;45.590;-122.498;2022-12-29T03:04:38;3.00;;;1.70;;
50631;SDS011;49583;45.590;-122.498;2022-12-29T03:07:02;5.70;;;2.10;;
50631;SDS011;49583;45.590;-122.498;2022-12-29T03:09:29;5.20;;;1.90;;
50631;SDS011;49583;45.590;-122.498;2022-12-29T03:11:53;4.00;;;1.80;;
50631;SDS011;49583;45.590;-122.498;2022-12-29T03:14:22;2.60;;;1.50;;
50631;SDS011;49583;45.590;-122.498;2022-12-29T03:16:59;1.90;;;1.40;;
50631;SDS011;49583;45.590;-122.498;2022-12-29T03:19:22;3.60;;;1.50;;
50631;SDS011;49583;45.590;-122.498;2022-12-29T03:21:38;3.90;;;1.90;;
50631;SDS011;49583;45.590;-122.498;2022-12-29T03:24:16;4.20;;;1.90;;
50631;SDS011;49583;45.590;-122.498;2022-12-29T03:26:33;2.40;;;1.50;;
50631;SDS011;49583;45.590;-122.498;2022-12-29T03:28:48;4.00;;;1.70;;
50631;SDS011;49583;45.590;-122.498;2022-12-29T03:31:07;5.30;;;2.00;;
50631;SDS011;49583;45.590;-122.498;2022-12-29T03:33:24;3.00;;;2.30;;
50631;SDS011;49583;45.590;-122.498;2022-12-29T03:35:40;4.80;;;2.00;;
50631;SDS011;49583;45.590;-122.498;2022-12-29T03:37:58;3.90;;;2.60;;
50631;SDS011;49583;45.590;-122.498;2022-12-29T03:40:16;4.60;;;2.60;;
50631;SDS011;49583;45.590;-122.498;2022-12-29T03:42:32;5.00;;;2.20;;
50631;SDS011;49583;45.590;-122.498;2022-12-29T03:44:48;4.20;;;1.90;;
50631;SDS011;49583;45.590;-122.498;2022-12-29T03:47:07;3.30;;;2.20;;
50631;SDS011;49583;45.590;-122.498;2022-12-29T03:49:24;4.20;;;2.50;;
50631;SDS011;49583;45.590;-122.498;2022-12-29T03:51:37;2.80;;;2.00;;
50631;SDS011;49583;45.590;-122.498;2022-12-29T03:53:51;3.60;;;2.60;;
50631;SDS011;49583;45.590;-122.498;2022-12-29T03:56:04;4.20;;;2.40;;
50631;SDS011;49583;45.590;-122.498;2022-12-29T03:58:17;3.60;;;2.30;;
50631;SDS011;49583;45.590;-122.498;2022-12-29T04:00:38;5.10;;;2.60;;
50631;SDS011;49583;45.590;-122.498;2022-12-29T04:02:51;2.30;;;1.90;;
50631;SDS011;49583;45.590;-122.498;2022-12-29T04:05:05;5.10;;;2.00;;
50631;SDS011;49583;45.590;-122.498;2022-12-29T04:07:20;3.10;;;1.90;;
50631;SDS011;49583;45.590;-122.498;2022-12-29T04:09:34;2.10;;;1.90;;
50631;SDS011;49583;45.590;-122.498;2022-12-29T04:11:50;5.10;;;2.20;;
50631;SDS011;49583;45.590;-122.498;2022-12-29T04:14:03;5.90;;;2.10;;
50631;SDS011;49583;45.590;-122.498;2022-12-29T04:16:16;2.70;;;1.80;;
50631;SDS011;49583;45.590;-122.498;2022-12-29T04:18:29;4.10;;;1.90;;
50631;SDS011;49583;45.590;-122.498;2022-12-29T04:20:43;3.60;;;3.00;;
50631;SDS011;49583;45.590;-122.498;2022-12-29T04:23:14;3.80;;;2.40;;
50631;SDS011;49583;45.590;-122.498;2022-12-29T04:25:27;4.50;;;2.30;;
50631;SDS011;49583;45.590;-122.498;2022-12-29T04:27:41;2.20;;;1.80;;
50631;SDS011;49583;45.590;-122.498;2022-12-29T04:30:13;3.30;;;2.20;;
50631;SDS011;49583;45.590;-122.498;2022-12-29T04:32:55;3.00;;;2.40;;
50631;SDS011;49583;45.590;-122.498;2022-12-29T04:35:09;3.00;;;1.30;;
50631;SDS011;49583;45.590;-122.498;2022-12-29T04:37:24;2.00;;;1.50;;
50631;SDS011;49583;45.590;-122.498;2022-12-29T04:39:37;5.80;;;2.60;;
50631;SDS011;49583;45.590;-122.498;2022-12-29T04:41:51;3.80;;;2.60;;
50631;SDS011;49583;45.590;-122.498;2022-12-29T04:44:04;3.40;;;2.70;;
50631;SDS011;49583;45.590;-122.498;2022-12-29T04:46:42;3.50;;;2.20;;
50631;SDS011;49583;45.590;-122.498;2022-12-29T04:49:08;4.40;;;2.10;;
50631;SDS011;49583;45.590;-122.498;2022-12-29T04:51:46;3.10;;;2.00;;
50631;SDS011;49583;45.590;-122.498;2022-12-29T04:54:00;3.30;;;2.10;;
50631;SDS011;49583;45.590;-122.498;2022-12-29T04:56:13;2.50;;;1.60;;
50631;SDS011;49583;45.590;-122.498;2022-12-29T04:58:27;11.50;;;2.10;;
50631;SDS011;49583;45.590;-122.498;2022-12-29T05:00:40;4.20;;;2.50;;
50631;SDS011;49583;45.590;-122.498;2022-12-29T05:02:53;3.60;;;2.00;;
50631;SDS011;49583;45.590;-122.498;2022-12-29T05:05:09;3.20;;;2.30;;
50631;SDS011;49583;45.590;-122.498;2022-12-29T05:07:26;3.80;;;2.10;;
50631;SDS011;49583;45.590;-122.498;2022-12-29T05:09:41;2.50;;;1.60;;
50631;SDS011;49583;45.590;-122.498;2022-12-29T05:11:54;1.40;;;1.30;;
50631;SDS011;49583;45.590;-122.498;2022-12-29T05:14:09;2.00;;;1.20;;
50631;SDS011;49583;45.590;-122.498;2022-12-29T05:16:25;2.80;;;1.20;;
50631;SDS011;49583;45.590;-122.498;2022-12-29T05:18:38;2.60;;;1.30;;
50631;SDS011;49583;45.590;-122.498;2022-12-29T05:20:51;2.10;;;1.30;;
50631;SDS011;49583;45.590;-122.498;2022-12-29T05:23:04;3.10;;;1.40;;
50631;SDS011;49583;45.590;-122.498;2022-12-29T05:25:18;1.90;;;1.30;;
50631;SDS011;49583;45.590;-122.498;2022-12-29T05:27:57;2.30;;;1.20;;
50631;SDS011;49583;45.590;-122.498;2022-12-29T05:30:31;2.50;;;1.10;;
50631;SDS011;49583;45.590;-122.498;2022-12-29T05:32:44;2.80;;;1.30;;
50631;SDS011;49583;45.590;-122.498;2022-12-29T05:34:57;2.10;;;1.70;;
50631;SDS011;49583;45.590;-122.498;2022-12-29T05:37:12;5.20;;;1.80;;
50631;SDS011;49583;45.590;-122.498;2022-12-29T05:39:25;3.40;;;1.90;;
50631;SDS011;49583;45.590;-122.498;2022-12-29T05:41:40;4.70;;;3.50;;
50631;SDS011;49583;45.590;-122.498;2022-12-29T05:44:15;6.30;;;2.70;;
50631;SDS011;49583;45.590;-122.498;2022-12-29T05:46:51;3.70;;;2.50;;
50631;SDS011;49583;45.590;-122.498;2022-12-29T05:49:18;4.90;;;2.60;;
50631;SDS011;49583;45.590;-122.498;2022-12-29T05:51:37;3.80;;;2.40;;
50631;SDS011;49583;45.590;-122.498;2022-12-29T05:53:51;4.30;;;2.30;;
50631;SDS011;49583;45.590;-122.498;2022-12-29T05:56:06;3.70;;;2.40;;
50631;SDS011;49583;45.590;-122.498;2022-12-29T05:58:20;3.70;;;2.80;;
50631;SDS011;49583;45.590;-122.498;2022-12-29T06:00:35;6.00;;;2.70;;
50631;SDS011;49583;45.590;-122.498;2022-12-29T06:02:49;5.50;;;3.30;;
50631;SDS011;49583;45.590;-122.498;2022-12-29T06:05:02;4.40;;;2.00;;
50631;SDS011;49583;45.590;-122.498;2022-12-29T06:07:18;5.00;;;2.70;;
50631;SDS011;49583;45.590;-122.498;2022-12-29T06:09:31;3.60;;;2.90;;
50631;SDS011;49583;45.590;-122.498;2022-12-29T06:11:45;3.50;;;2.20;;
50631;SDS011;49583;45.590;-122.498;2022-12-29T06:13:58;2.60;;;2.40;;
50631;SDS011;49583;45.590;-122.498;2022-12-29T06:16:14;2.90;;;2.30;;
50631;SDS011;49583;45.590;-122.498;2022-12-29T06:18:30;4.50;;;3.00;;
50631;SDS011;49583;45.590;-122.498;2022-12-29T06:20:46;3.00;;;2.20;;
50631;SDS011;49583;45.590;-122.498;2022-12-29T06:23:01;3.50;;;2.00;;
50631;SDS011;49583;45.590;-122.498;2022-12-29T06:25:14;3.20;;;2.00;;
50631;SDS011;49583;45.590;-122.498;2022-12-29T06:27:27;3.80;;;2.10;;
50631;SDS011;49583;45.590;-122.498;2022-12-29T06:29:41;3.70;;;2.00;;
50631;SDS011;49583;45.590;-122.498;2022-12-29T06:31:55;2.30;;;2.10;;
50631;SDS011;49583;45.590;-122.498;2022-12-29T06:34:10;2.80;;;2.10;;
50631;SDS011;49583;45.590;-122.498;2022-12-29T06:36:23;2.70;;;1.90;;
50631;SDS011;49583;45.590;-122.498;2022-12-29T06:38:37;2.50;;;2.30;;
50631;SDS011;49583;45.590;-122.498;2022-12-29T06:40:53;2.70;;;2.10;;
50631;SDS011;49583;45.590;-122.498;2022-12-29T06:43:25;2.60;;;2.10;;
50631;SDS011;49583;45.590;-122.498;2022-12-29T06:45:42;2.40;;;2.10;;
50631;SDS011;49583;45.590;-122.498;2022-12-29T06:47:56;2.60;;;1.50;;
50631;SDS011;49583;45.590;-122.498;2022-12-29T06:50:10;2.50;;;2.30;;
50631;SDS011;49583;45.590;-122.498;2022-12-29T06:52:23;6.00;;;2.00;;
50631;SDS011;49583;45.590;-122.498;2022-12-29T06:54:37;2.50;;;2.00;;
50631;SDS011;49583;45.590;-122.498;2022-12-29T06:56:50;3.80;;;1.80;;
50631;SDS011;49583;45.590;-122.498;2022-12-29T06:59:03;1.80;;;1.70;;
50631;SDS011;49583;45.590;-122.498;2022-12-29T07:01:16;2.60;;;1.70;;
50631;SDS011;49583;45.590;-122.498;2022-12-29T07:03:30;2.70;;;1.50;;
50631;SDS011;49583;45.590;-122.498;2022-12-29T07:05:43;2.00;;;1.80;;
50631;SDS011;49583;45.590;-122.498;2022-12-29T07:07:56;2.50;;;1.90;;
50631;SDS011;49583;45.590;-122.498;2022-12-29T07:10:09;1.70;;;1.60;;
50631;SDS011;49583;45.590;-122.498;2022-12-29T07:12:24;2.60;;;1.60;;
50631;SDS011;49583;45.590;-122.498;2022-12-29T07:14:37;1.80;;;1.70;;
50631;SDS011;49583;45.590;-122.498;2022-12-29T07:16:50;1.40;;;1.30;;
50631;SDS011;49583;45.590;-122.498;2022-12-29T07:19:03;1.40;;;1.30;;
50631;SDS011;49583;45.590;-122.498;2022-12-29T07:21:16;2.20;;;1.60;;
50631;SDS011;49583;45.590;-122.498;2022-12-29T07:23:29;1.30;;;1.20;;
50631;SDS011;49583;45.590;-122.498;2022-12-29T07:25:43;2.30;;;1.50;;
50631;SDS011;49583;45.590;-122.498;2022-12-29T07:27:55;1.90;;;1.80;;
50631;SDS011;49583;45.590;-122.498;2022-12-29T07:30:09;2.00;;;1.50;;
50631;SDS011;49583;45.590;-122.498;2022-12-29T07:32:23;1.80;;;1.70;;
50631;SDS011;49583;45.590;-122.498;2022-12-29T07:34:36;1.60;;;1.50;;
50631;SDS011;49583;45.590;-122.498;2022-12-29T07:36:49;1.50;;;1.40;;
50631;SDS011;49583;45.590;-122.498;2022-12-29T07:39:02;1.60;;;1.50;;
50631;SDS011;49583;45.590;-122.498;2022-12-29T07:41:15;1.70;;;1.40;;
50631;SDS011;49583;45.590;-122.498;2022-12-29T07:43:28;2.10;;;1.60;;
50631;SDS011;49583;45.590;-122.498;2022-12-29T07:46:00;2.30;;;1.30;;
50631;SDS011;49583;45.590;-122.498;2022-12-29T07:48:14;2.70;;;1.40;;
50631;SDS011;49583;45.590;-122.498;2022-12-29T07:50:27;1.10;;;1.00;;
50631;SDS011;49583;45.590;-122.498;2022-12-29T07:52:40;1.30;;;1.20;;
50631;SDS011;49583;45.590;-122.498;2022-12-29T07:54:54;2.10;;;1.00;;
50631;SDS011;49583;45.590;-122.498;2022-12-29T07:57:07;1.00;;;1.00;;
50631;SDS011;49583;45.590;-122.498;2022-12-29T07:59:20;1.50;;;1.40;;
50631;SDS011;49583;45.590;-122.498;2022-12-29T08:01:33;1.30;;;1.20;;
50631;SDS011;49583;45.590;-122.498;2022-12-29T08:03:47;2.70;;;1.10;;
50631;SDS011;49583;45.590;-122.498;2022-12-29T08:06:03;1.60;;;1.30;;
50631;SDS011;49583;45.590;-122.498;2022-12-29T08:08:19;2.40;;;0.90;;
50631;SDS011;49583;45.590;-122.498;2022-12-29T08:10:32;1.40;;;0.90;;
50631;SDS011;49583;45.590;-122.498;2022-12-29T08:12:46;1.50;;;1.10;;
50631;SDS011;49583;45.590;-122.498;2022-12-29T08:14:59;1.10;;;1.10;;
50631;SDS011;49583;45.590;-122.498;2022-12-29T08:17:12;1.00;;;1.00;;
50631;SDS011;49583;45.590;-122.498;2022-12-29T08:19:25;0.90;;;0.90;;
50631;SDS011;49583;45.590;-122.498;2022-12-29T08:21:39;0.80;;;0.80;;
50631;SDS011;49583;45.590;-122.498;2022-12-29T08:23:52;1.00;;;1.00;;
50631;SDS011;49583;45.590;-122.498;2022-12-29T08:26:06;0.90;;;0.80;;
50631;SDS011;49583;45.590;-122.498;2022-12-29T08:28:19;1.00;;;0.90;;
50631;SDS011;49583;45.590;-122.498;2022-12-29T08:30:31;1.90;;;0.80;;
50631;SDS011;49583;45.590;-122.498;2022-12-29T08:32:46;1.20;;;1.10;;
50631;SDS011;49583;45.590;-122.498;2022-12-29T08:34:58;1.00;;;1.00;;
50631;SDS011;49583;45.590;-122.498;2022-12-29T08:37:11;1.20;;;1.10;;
50631;SDS011;49583;45.590;-122.498;2022-12-29T08:39:24;1.80;;;1.20;;
50631;SDS011;49583;45.590;-122.498;2022-12-29T08:41:37;1.10;;;1.00;;
50631;SDS011;49583;45.590;-122.498;2022-12-29T08:43:51;1.20;;;1.10;;
50631;SDS011;49583;45.590;-122.498;2022-12-29T08:46:03;0.90;;;0.90;;
50631;SDS011;49583;45.590;-122.498;2022-12-29T08:48:17;0.90;;;0.90;;
50631;SDS011;49583;45.590;-122.498;2022-12-29T08:50:30;1.90;;;1.30;;
50631;SDS011;49583;45.590;-122.498;2022-12-29T08:52:44;1.40;;;1.10;;
50631;SDS011;49583;45.590;-122.498;2022-12-29T08:54:56;1.40;;;1.30;;
50631;SDS011;49583;45.590;-122.498;2022-12-29T08:57:10;1.10;;;1.00;;
50631;SDS011;49583;45.590;-122.498;2022-12-29T08:59:41;0.80;;;0.80;;
50631;SDS011;49583;45.590;-122.498;2022-12-29T09:01:54;1.00;;;1.00;;
50631;SDS011;49583;45.590;-122.498;2022-12-29T09:04:08;0.90;;;0.90;;
50631;SDS011;49583;45.590;-122.498;2022-12-29T09:06:23;1.90;;;1.30;;
50631;SDS011;49583;45.590;-122.498;2022-12-29T09:08:42;1.20;;;1.00;;
50631;SDS011;49583;45.590;-122.498;2022-12-29T09:10:55;0.90;;;0.90;;
50631;SDS011;49583;45.590;-122.498;2022-12-29T09:13:15;1.40;;;1.10;;
50631;SDS011;49583;45.590;-122.498;2022-12-29T09:15:28;1.30;;;1.20;;
50631;SDS011;49583;45.590;-122.498;2022-12-29T09:17:41;1.40;;;1.00;;
50631;SDS011;49583;45.590;-122.498;2022-12-29T09:19:55;1.20;;;1.10;;
50631;SDS011;49583;45.590;-122.498;2022-12-29T09:22:08;1.00;;;1.00;;
50631;SDS011;49583;45.590;-122.498;2022-12-29T09:24:20;1.60;;;1.20;;
50631;SDS011;49583;45.590;-122.498;2022-12-29T09:26:34;1.60;;;1.00;;
50631;SDS011;49583;45.590;-122.498;2022-12-29T09:28:53;1.30;;;1.20;;
50631;SDS011;49583;45.590;-122.498;2022-12-29T09:31:06;0.80;;;0.80;;
50631;SDS011;49583;45.590;-122.498;2022-12-29T09:33:20;1.70;;;1.60;;
50631;SDS011;49583;45.590;-122.498;2022-12-29T09:35:33;2.40;;;1.10;;
50631;SDS011;49583;45.590;-122.498;2022-12-29T09:37:46;1.40;;;0.90;;
50631;SDS011;49583;45.590;-122.498;2022-12-29T09:39:59;1.30;;;1.20;;
50631;SDS011;49583;45.590;-122.498;2022-12-29T09:42:14;1.10;;;1.00;;
50631;SDS011;49583;45.590;-122.498;2022-12-29T09:44:37;1.10;;;1.10;;
50631;SDS011;49583;45.590;-122.498;2022-12-29T09:47:01;1.80;;;1.10;;
50631;SDS011;49583;45.590;-122.498;2022-12-29T09:49:21;1.70;;;1.00;;
50631;SDS011;49583;45.590;-122.498;2022-12-29T09:51:40;1.20;;;1.00;;
50631;SDS011;49583;45.590;-122.498;2022-12-29T09:53:58;0.80;;;0.80;;
50631;SDS011;49583;45.590;-122.498;2022-12-29T09:56:18;1.00;;;1.00;;
50631;SDS011;49583;45.590;-122.498;2022-12-29T09:58:35;0.90;;;0.90;;
50631;SDS011;49583;45.590;-122.498;2022-12-29T10:00:52;0.90;;;0.90;;
50631;SDS011;49583;45.590;-122.498;2022-12-29T10:03:10;1.00;;;1.00;;
50631;SDS011;49583;45.590;-122.498;2022-12-29T10:05:30;0.90;;;0.90;;
50631;SDS011;49583;45.590;-122.498;2022-12-29T10:07:50;1.10;;;1.00;;
50631;SDS011;49583;45.590;-122.498;2022-12-29T10:10:16;1.00;;;1.00;;
50631;SDS011;49583;45.590;-122.498;2022-12-29T10:12:42;2.30;;;0.90;;
50631;SDS011;49583;45.590;-122.498;2022-12-29T10:15:11;0.90;;;0.90;;
50631;SDS011;49583;45.590;-122.498;2022-12-29T10:17:39;1.00;;;1.00;;
50631;SDS011;49583;45.590;-122.498;2022-12-29T10:20:00;0.90;;;0.90;;
50631;SDS011;49583;45.590;-122.498;2022-12-29T10:22:31;0.90;;;0.90;;
50631;SDS011;49583;45.590;-122.498;2022-12-29T10:24:54;1.10;;;1.10;;
50631;SDS011;49583;45.590;-122.498;2022-12-29T10:27:12;1.00;;;0.80;;
50631;SDS011;49583;45.590;-122.498;2022-12-29T10:29:26;0.90;;;0.90;;
50631;SDS011;49583;45.590;-122.498;2022-12-29T10:31:43;1.50;;;0.80;;
50631;SDS011;49583;45.590;-122.498;2022-12-29T10:33:59;0.80;;;0.80;;
50631;SDS011;49583;45.590;-122.498;2022-12-29T10:36:18;0.90;;;0.90;;
50631;SDS011;49583;45.590;-122.498;2022-12-29T10:38:35;1.50;;;1.20;;
50631;SDS011;49583;45.590;-122.498;2022-12-29T10:40:57;0.90;;;0.90;;
50631;SDS011;49583;45.590;-122.498;2022-12-29T10:43:16;1.80;;;1.10;;
50631;SDS011;49583;45.590;-122.498;2022-12-29T10:45:35;0.90;;;0.90;;
50631;SDS011;49583;45.590;-122.498;2022-12-29T10:47:51;0.90;;;0.90;;
50631;SDS011;49583;45.590;-122.498;2022-12-29T10:50:07;1.00;;;1.00;;
50631;SDS011;49583;45.590;-122.498;2022-12-29T10:52:23;1.00;;;0.90;;
50631;SDS011;49583;45.590;-122.498;2022-12-29T10:54:40;1.80;;;1.10;;
50631;SDS011;49583;45.590;-122.498;2022-12-29T10:57:00;0.90;;;0.90;;
50631;SDS011;49583;45.590;-122.498;2022-12-29T10:59:19;2.60;;;0.90;;
50631;SDS011;49583;45.590;-122.498;2022-12-29T11:01:37;1.30;;;1.00;;
50631;SDS011;49583;45.590;-122.498;2022-12-29T11:04:02;1.10;;;1.00;;
50631;SDS011;49583;45.590;-122.498;2022-12-29T11:06:21;1.20;;;1.10;;
50631;SDS011;49583;45.590;-122.498;2022-12-29T11:08:38;0.70;;;0.70;;
50631;SDS011;49583;45.590;-122.498;2022-12-29T11:11:04;1.00;;;0.90;;
50631;SDS011;49583;45.590;-122.498;2022-12-29T11:13:19;0.80;;;0.80;;
50631;SDS011;49583;45.590;-122.498;2022-12-29T11:15:45;0.80;;;0.80;;
50631;SDS011;49583;45.590;-122.498;2022-12-29T11:17:59;1.00;;;0.90;;
50631;SDS011;49583;45.590;-122.498;2022-12-29T11:20:24;1.80;;;1.00;;
50631;SDS011;49583;45.590;-122.498;2022-12-29T11:22:45;0.90;;;0.80;;
50631;SDS011;49583;45.590;-122.498;2022-12-29T11:25:10;1.10;;;0.70;;
50631;SDS011;49583;45.590;-122.498;2022-12-29T11:27:25;1.10;;;0.90;;
50631;SDS011;49583;45.590;-122.498;2022-12-29T11:29:38;1.20;;;1.00;;
50631;SDS011;49583;45.590;-122.498;2022-12-29T11:31:53;0.80;;;0.80;;
50631;SDS011;49583;45.590;-122.498;2022-12-29T11:34:07;0.90;;;0.70;;
50631;SDS011;49583;45.590;-122.498;2022-12-29T11:36:26;0.80;;;0.80;;
50631;SDS011;49583;45.590;-122.498;2022-12-29T11:38:40;1.20;;;1.00;;
50631;SDS011;49583;45.590;-122.498;2022-12-29T11:40:59;0.80;;;0.80;;
50631;SDS011;49583;45.590;-122.498;2022-12-29T11:43:16;1.10;;;1.00;;
50631;SDS011;49583;45.590;-122.498;2022-12-29T11:45:37;1.80;;;0.80;;
50631;SDS011;49583;45.590;-122.498;2022-12-29T11:47:58;1.30;;;1.00;;
50631;SDS011;49583;45.590;-122.498;2022-12-29T11:50:20;1.30;;;0.90;;
50631;SDS011;49583;45.590;-122.498;2022-12-29T11:52:36;0.80;;;0.80;;
50631;SDS011;49583;45.590;-122.498;2022-12-29T11:54:49;0.80;;;0.80;;
50631;SDS011;49583;45.590;-122.498;2022-12-29T11:57:10;1.20;;;1.10;;
50631;SDS011;49583;45.590;-122.498;2022-12-29T11:59:39;0.80;;;0.80;;
50631;SDS011;49583;45.590;-122.498;2022-12-29T12:01:59;1.00;;;0.90;;
50631;SDS011;49583;45.590;-122.498;2022-12-29T12:04:21;1.80;;;0.90;;
50631;SDS011;49583;45.590;-122.498;2022-12-29T12:06:41;1.40;;;0.90;;
50631;SDS011;49583;45.590;-122.498;2022-12-29T12:08:59;0.80;;;0.80;;
50631;SDS011;49583;45.590;-122.498;2022-12-29T12:11:17;0.90;;;0.90;;
50631;SDS011;49583;45.590;-122.498;2022-12-29T12:13:34;0.90;;;0.80;;
50631;SDS011;49583;45.590;-122.498;2022-12-29T12:15:54;0.70;;;0.70;;
50631;SDS011;49583;45.590;-122.498;2022-12-29T12:18:13;1.20;;;0.80;;
50631;SDS011;49583;45.590;-122.498;2022-12-29T12:20:38;0.80;;;0.80;;
50631;SDS011;49583;45.590;-122.498;2022-12-29T12:22:58;1.20;;;0.60;;
50631;SDS011;49583;45.590;-122.498;2022-12-29T12:25:21;0.70;;;0.70;;
50631;SDS011;49583;45.590;-122.498;2022-12-29T12:27:39;0.70;;;0.70;;
50631;SDS011;49583;45.590;-122.498;2022-12-29T12:29:59;0.70;;;0.70;;
50631;SDS011;49583;45.590;-122.498;2022-12-29T12:32:17;1.10;;;0.80;;
50631;SDS011;49583;45.590;-122.498;2022-12-29T12:34:37;1.10;;;0.70;;
50631;SDS011;49583;45.590;-122.498;2022-12-29T12:36:58;0.80;;;0.80;;
50631;SDS011;49583;45.590;-122.498;2022-12-29T12:39:30;0.80;;;0.80;;
50631;SDS011;49583;45.590;-122.498;2022-12-29T12:41:52;0.70;;;0.70;;
50631;SDS011;49583;45.590;-122.498;2022-12-29T12:44:18;0.70;;;0.70;;
50631;SDS011;49583;45.590;-122.498;2022-12-29T12:46:45;1.00;;;0.80;;
50631;SDS011;49583;45.590;-122.498;2022-12-29T12:49:26;0.60;;;0.60;;
50631;SDS011;49583;45.590;-122.498;2022-12-29T12:51:53;0.60;;;0.60;;
50631;SDS011;49583;45.590;-122.498;2022-12-29T12:54:21;0.90;;;0.60;;
50631;SDS011;49583;45.590;-122.498;2022-12-29T12:56:52;0.70;;;0.70;;
50631;SDS011;49583;45.590;-122.498;2022-12-29T12:59:19;2.30;;;0.80;;
50631;SDS011;49583;45.590;-122.498;2022-12-29T13:01:50;0.60;;;0.60;;
50631;SDS011;49583;45.590;-122.498;2022-12-29T13:04:17;0.70;;;0.70;;
50631;SDS011;49583;45.590;-122.498;2022-12-29T13:06:47;0.70;;;0.70;;
50631;SDS011;49583;45.590;-122.498;2022-12-29T13:09:11;0.80;;;0.70;;
50631;SDS011;49583;45.590;-122.498;2022-12-29T13:11:41;0.80;;;0.80;;
50631;SDS011;49583;45.590;-122.498;2022-12-29T13:14:12;1.20;;;0.60;;
50631;SDS011;49583;45.590;-122.498;2022-12-29T13:16:34;0.80;;;0.70;;
50631;SDS011;49583;45.590;-122.498;2022-12-29T13:18:58;1.30;;;0.80;;
50631;SDS011;49583;45.590;-122.498;2022-12-29T13:21:22;1.40;;;0.70;;